Terminal Aerodrome Forecast
Issued by NWS

Home | Current Version | Previous Version | Text Only | Print | Product List | Glossary On
Versions: 1 2 3 4 5 6 7 8 9 10 11 12 13 14
000
FTUS41 KLWX 011131
TAFMTN
TAF
KMTN 011131Z 0112/0212 00000KT P6SM SCT100
     FM011400 VRB03KT 3SM -SN BR BKN025 OVC060
     FM011700 18005KT 2SM -FZRASNPL BR BKN009 OVC030
     FM012100 17005KT 3SM -FZRA BR BKN009 OVC020
     FM020000 17006KT 3SM BR BKN009 OVC020
     FM020600 23005KT P6SM SCT020 OVC035
     FM020900 26010KT P6SM OVC050=

USA.gov is the U.S. government's official web portal to all federal, state and local government web resources and services.